Msc Industrial Direct Co-A (MSM) Latest Bloomsberg Price


Mffais Ranking #2395 Overall / #10 Industry
Industry: Industrial Distribution And Rental

Number of Companies: 215 (Ranking #756 Overall/#3 Industry)
Inflow: $ 94,188 (K) (Ranking #988 Overall/#6 Industry)
Outflow: $ -164,693 (K)
Mffais Flow: $ -70,504 (K) (Ranking #2395 Overall/#10 Industry)


Receive a FREE weekly executive review of stocks moving into the top 10, taking the top industy spot or moving up within their industry. Sent directly to your Inbox every Saturday. Sign up today and get last week's review immediately sent to you.

We value and respect your privacy. Please read our Terms and Conditions which states our firm commitment to your privacy. Your email address will not be shared with a third party, nor will it be sold or used for purposes other than subscription for the weekly review.

Owner CPOR Shares Action Qty Chg Invested (K) Total Current Value (K)
Wbi Investments Inc 2016-09-30 203,548 New Holding 203,548 $ 14,561 $ 14,561
Echo Street Capital Management Llc 2016-09-30 234,221 Added More 138,598 $ 9,915 $ 16,756
Verition Fund Management Llc 2016-09-30 85,000 Added More 80,440 $ 5,754 $ 6,080
Pdt Partners Llc 2016-09-30 100,000 Added More 78,728 $ 5,632 $ 7,154
Gotham Asset Management Llc 2016-09-30 126,842 Added More 64,118 $ 4,587 $ 9,074
Panagora Asset Management Inc 2016-09-30 79,413 Added More 59,704 $ 4,271 $ 5,681
Bluecrest Capital Management Ltd 2016-09-30 59,409 New Holding 59,409 $ 4,250 $ 4,250
Blackrock Inc 2016-09-30 103,342 Added More 57,407 $ 4,106 $ 7,393
Thrivent Financial For Lutherans 2016-09-30 63,960 Added More 57,140 $ 4,087 $ 4,575
Dimensional Fund Advisors Lp 2016-09-30 415,957 Added More 46,870 $ 3,353 $ 29,757
Denali Advisors Llc 2016-09-30 40,100 New Holding 40,100 $ 2,868 $ 2,868
Emerald Acquisition Ltd 2016-09-30 58,820 Added More 37,711 $ 2,697 $ 4,207
Hussman Strategic Advisors Inc 2016-09-30 27,100 Added More 25,000 $ 1,788 $ 1,938
Usca Ria Llc 2016-09-30 24,551 New Holding 24,551 $ 1,756 $ 1,756
Hermes Investment Management Ltd 2016-09-30 327,461 Added More 22,835 $ 1,633 $ 23,426
Omers Administration Corp 2016-09-30 125,900 Added More 22,400 $ 1,602 $ 9,006
Raymond James Associates 2016-09-30 306,688 Added More 20,430 $ 1,461 $ 21,940
First Quadrant L P Ca 2016-09-30 244,254 Added More 19,876 $ 1,421 $ 17,473
Ahl Partners Llp 2016-09-30 47,133 Added More 19,500 $ 1,395 $ 3,371
New York State Common Retirement Fund 2016-09-30 166,800 Added More 19,200 $ 1,373 $ 11,932
Poplar Forest Capital Llc 2016-09-30 700,468 Added More 16,062 $ 1,149 $ 50,111
Confluence Investment Management Llc 2016-09-30 264,050 Added More 13,889 $ 993 $ 18,890
Capstone Investment Advisors Llc 2016-09-30 27,017 Added More 12,017 $ 859 $ 1,932
Tudor Investment Corp Et Al 2016-09-30 21,205 Added More 11,813 $ 845 $ 1,517
Fisher Asset Management Llc 2016-09-30 679,132 Added More 10,844 $ 775 $ 48,585
King Luther Capital Management Corp 2016-09-30 127,895 Added More 10,515 $ 752 $ 9,149
Aperio Group Llc 2016-09-30 22,001 Added More 10,086 $ 721 $ 1,573
Advisors Asset Management Inc 2016-09-30 34,921 Added More 9,350 $ 668 $ 2,498
Amp Capital Investors Ltd 2016-09-30 12,659 Added More 9,259 $ 662 $ 905
Squarepoint Ops Llc 2016-09-30 8,794 New Holding 8,794 $ 629 $ 629
Cipher Capital Lp 2016-09-30 8,006 New Holding 8,006 $ 572 $ 572
Td Asset Management Inc 2016-09-30 13,689 Added More 7,600 $ 543 $ 979
Bessemer Group Inc 2016-09-30 16,730 Added More 6,870 $ 491 $ 1,196
Nn Investment Partners Holdings N V 2016-09-30 6,433 New Holding 6,433 $ 460 $ 460
Jensen Investment Management Inc 2016-09-30 6,340 New Holding 6,340 $ 453 $ 453
Princeton Alpha Management Lp 2016-09-30 6,251 New Holding 6,251 $ 447 $ 447
Cantab Capital Partners Llp 2016-09-30 26,604 Added More 6,214 $ 444 $ 1,903
Ontario Teachers Pension Plan Board 2016-09-30 5,631 New Holding 5,631 $ 402 $ 402
Ladenburg Thalmann Financial Services Inc 2016-09-30 116,184 Added More 5,311 $ 379 $ 8,311
London Co Of Virginia 2016-09-30 628,762 Added More 4,670 $ 334 $ 44,981
Rhumbline Advisers 2016-09-30 109,400 Added More 3,276 $ 234 $ 7,826
World Asset Management Inc 2016-09-30 2,942 New Holding 2,942 $ 210 $ 210
Morningstar Investment Services Llc 2016-09-30 2,761 New Holding 2,761 $ 197 $ 197
Cadence Capital Management Llc 2016-09-30 12,831 Added More 2,740 $ 196 $ 917
Pzena Investment Management Llc 2016-09-30 2,730 New Holding 2,730 $ 195 $ 195
Menta Capital Llc 2016-09-30 14,102 Added More 2,524 $ 180 $ 1,008
Northcoast Asset Management Llc 2016-09-30 34,478 Added More 2,348 $ 167 $ 2,466
Nuveen Asset Management Llc 2016-09-30 57,721 Added More 2,248 $ 160 $ 4,129
Professional Advisory Services Inc 2016-09-30 111,519 Added More 2,192 $ 156 $ 7,978
Teachers Advisors Inc 2016-09-30 80,014 Added More 2,159 $ 154 $ 5,724
Cutler Group Lp 2016-09-30 2,400 Added More 1,988 $ 142 $ 171
Qs Investors Llc 2016-09-30 1,682 Added More 1,659 $ 118 $ 120
Verity Verity Llc 2016-09-30 19,224 Added More 1,615 $ 115 $ 1,375
Rational Advisors Llc 2016-09-30 1,400 New Holding 1,400 $ 100 $ 100
Alambic Investment Management L P 2016-09-30 9,900 Added More 1,400 $ 100 $ 708
Willis Investment Counsel 2016-09-30 90,815 Added More 1,105 $ 79 $ 6,496
Great Lakes Advisors Llc 2016-09-30 27,704 Added More 1,073 $ 76 $ 1,981
M T Bank Corp 2016-09-30 5,319 Added More 1,020 $ 72 $ 380
California State Teachers Retirement System 2016-09-30 102,739 Added More 900 $ 64 $ 7,349
Stifel Financial Corp 2016-09-30 18,288 Added More 893 $ 63 $ 1,308
Formidable Asset Management Llc 2016-09-30 10,535 Added More 615 $ 43 $ 753
Legal General Group Plc 2016-09-30 21,461 Added More 564 $ 40 $ 1,535
Acrospire Investment Management Llc 2016-09-30 800 Added More 500 $ 35 $ 57
Pacer Advisors Inc 2016-09-30 5,114 Added More 440 $ 31 $ 365
State Of Alaska Department Of Revenue 2016-09-30 11,074 Added More 430 $ 30 $ 792
Oregon Public Employees Retirement Fund 2016-09-30 16,550 Added More 331 $ 23 $ 1,183
Zurcher Kantonalbank Zurich Cantonalbank 2016-09-30 1,608 Added More 174 $ 12 $ 115
Northwest Investment Counselors Llc 2016-09-30 6,323 Added More 153 $ 10 $ 452
Dean Investment Associates Llc 2016-09-30 38,063 Added More 132 $ 9 $ 2,723
Advisor Group Inc 2016-09-30 1,031 Added More 119 $ 8 $ 73
Ifp Advisors Inc 2016-09-30 246 Added More 115 $ 8 $ 17
Commerce Bank 2016-09-30 3,825 Added More 100 $ 7 $ 273
Penserra Capital Management Llc 2016-09-30 221 Added More 88 $ 6 $ 15
Haverford Trust Co 2016-09-30 7,501 Added More 71 $ 5 $ 536
Financial Architects Inc 2016-09-30 519 Added More 62 $ 4 $ 37
Capstone Asset Management Co 2016-09-30 5,213 Added More 60 $ 4 $ 372
Country Trust Bank 2016-09-30 50 New Holding 50 $ 3 $ 3
Cambridge Investment Research Advisors Inc 2016-09-30 6,935 Added More 40 $ 2 $ 496
Creative Planning 2016-09-30 1,355 Added More 38 $ 2 $ 96
Weaver C Barksdale Associates Inc 2016-09-30 192 Added More 10 $ 0 $ 13
Cls Investments Llc 2016-09-30 1 New Holding 1 $ 0 $ 0
Oshaughnessy Asset Management Llc 2016-09-30 1,454 No Change 0 $ 0 $ 104
Qci Asset Management Inc Ny 2016-09-30 10 No Change 0 $ 0 $ 0
Martingale Asset Management L P 2016-09-30 29,555 No Change 0 $ 0 $ 2,114
Nisa Investment Advisors Llc 2016-09-30 9,810 No Change 0 $ 0 $ 701
Mufg Americas Holdings Corp 2016-09-30 10,075 No Change 0 $ 0 $ 720
Schwartz Investment Counsel Inc 2016-09-30 265,500 No Change 0 $ 0 $ 18,993
Smithfield Trust Co 2016-09-30 978 No Change 0 $ 0 $ 69
Check Capital Management Inc Ca 2016-09-30 3,865 No Change 0 $ 0 $ 276
Morgan Dempsey Capital Management Llc 2016-09-30 1,064 No Change 0 $ 0 $ 76
Washington Trust Bank 2016-09-30 200 No Change 0 $ 0 $ 14
Martin Currie Ltd 2016-09-30 11,756 No Change 0 $ 0 $ 841
Logan Capital Management Inc 2016-09-30 6,771 No Change 0 $ 0 $ 484
Value Holdings Lp 2016-09-30 73,396 No Change 0 $ 0 $ 5,250
Springbank Value Partners Lp 2016-09-30 31,800 No Change 0 $ 0 $ 2,274
Aeris Capital Holding Gmbh 2016-09-30 106,679 No Change 0 $ 0 $ 7,631
Regions Financial Corp 2016-09-30 3,933 No Change 0 $ 0 $ 281
Citizens Financial Group Inc Ri 2016-09-30 410 No Change 0 $ 0 $ 29
Gemmer Asset Management Llc 2016-09-30 101 No Change 0 $ 0 $ 7
First Manhattan Co 2016-09-30 1,400 No Change 0 $ 0 $ 100
Buffington Mohr Mcneal 2016-09-30 6,825 No Change 0 $ 0 $ 488
Sterling Capital Management Llc 2016-09-30 3,050 No Change 0 $ 0 $ 218
Euclidean Technologies Management Llc 2016-09-30 2,100 No Change 0 $ 0 $ 150
Teachers Retirement System Of The State Of Kentucky 2016-09-30 52,497 No Change 0 $ 0 $ 3,755
King Wealth Management Group Llc 2016-09-30 3,000 No Change 0 $ 0 $ 214
Midas Management Corp 2016-09-30 21,000 No Change 0 $ 0 $ 1,502
Teton Advisors Inc 2016-09-30 46,538 No Change 0 $ 0 $ 3,329
Benjamin F Edwards Company Inc 2016-09-30 45 No Change 0 $ 0 $ 3
Americafirst Capital Management Llc 2016-09-30 1,304 No Change 0 $ 0 $ 93
Utah Retirement Systems 2016-09-30 8,666 No Change 0 $ 0 $ 619
Bright Rock Capital Management Llc 2016-09-30 7,750 No Change 0 $ 0 $ 554
Lowe Brockenbrough Co Inc 2016-09-30 17,738 No Change 0 $ 0 $ 1,268
Wfg Advisors Lp 2016-09-30 741 No Change 0 $ 0 $ 53
Msi Financial Services Inc 2016-09-30 17 Sold Some -1 $ -0 $ 1
Aston Asset Management Llc 2016-06-30 15,869 Sold Some -8 $ -0 $ 1,119
Ls Investment Advisors Llc 2016-09-30 2,959 Sold Some -9 $ -0 $ 211
Finemark National Bank Trust 2016-09-30 0 Sold All -14 $ -1 $ 0
Quadrant Capital Group Llc 2016-09-30 10 Sold Some -17 $ -1 $ 0
Fifth Third Bancorp 2016-09-30 800 Sold Some -70 $ -5 $ 57
Bokf Na 2016-09-30 9,754 Sold Some -77 $ -5 $ 697
Northwestern Mutual Wealth Management Co 2016-09-30 501 Sold Some -90 $ -6 $ 35
Pnc Financial Services Group Inc 2016-09-30 1,805 Sold Some -258 $ -18 $ 129
Horizon Kinetics Llc 2016-09-30 5,745 Sold Some -268 $ -19 $ 410
Ibm Retirement Fund 2016-09-30 4,457 Sold Some -328 $ -23 $ 318
Segall Bryant Hamill Llc 2016-09-30 63,655 Sold Some -382 $ -27 $ 4,553
Advantus Capital Management Inc 2016-09-30 5,373 Sold Some -450 $ -32 $ 384
American Research Management Co 2016-09-30 7,435 Sold Some -475 $ -33 $ 531
Freestone Capital Holdings Llc 2016-09-30 24,353 Sold Some -525 $ -37 $ 1,742
Mountain Pacific Investment Advisers Inc Id 2016-09-30 209,954 Sold Some -565 $ -40 $ 15,020
Proshare Advisors Llc 2016-09-30 3,727 Sold Some -581 $ -41 $ 266
Kayne Anderson Rudnick Investment Management Llc 2016-09-30 27,804 Sold Some -615 $ -43 $ 1,989
Northwestern Mutual Investment Management Company Llc 2016-09-30 7,659 Sold Some -642 $ -45 $ 547
Hillsdale Investment Management Inc 2016-09-30 3,925 Sold Some -700 $ -50 $ 280
Checchi Capital Advisers Llc 2016-09-30 0 Sold All -765 $ -54 $ 0
Veritable L P 2016-09-30 4,891 Sold Some -772 $ -55 $ 349
Carleon Capital Partners Llc 2016-09-30 4,681 Sold Some -859 $ -61 $ 334
New York Life Trust Co 2016-09-30 128 Sold Some -1,087 $ -77 $ 9
Point72 Asia Hong Kong Ltd 2016-09-30 0 Sold All -1,100 $ -78 $ 0
Eagle Asset Management Inc 2016-09-30 13,324 Sold Some -1,155 $ -82 $ 953
Mason Street Advisors Llc 2016-09-30 20,578 Sold Some -1,348 $ -96 $ 1,472
Chicago Equity Partners Llc 2016-09-30 16,760 Sold Some -1,370 $ -98 $ 1,199
Arizona State Retirement System 2016-09-30 17,367 Sold Some -1,400 $ -100 $ 1,242
State Treasurer State Of Michigan 2016-09-30 60,900 Sold Some -1,400 $ -100 $ 4,356
Invictus Rg 2016-09-30 612 Sold Some -1,573 $ -112 $ 43
Kcg Holdings Inc 2016-09-30 11,102 Sold Some -1,855 $ -132 $ 794
Liberty Mutual Group Asset Management Inc 2016-09-30 18,999 Sold Some -1,934 $ -138 $ 1,359
Teacher Retirement System Of Texas 2016-09-30 39,202 Sold Some -1,977 $ -141 $ 2,804
Guggenheim Capital Llc 2016-09-30 3,818 Sold Some -2,004 $ -143 $ 273
Comerica Bank 2016-09-30 30,993 Sold Some -2,161 $ -154 $ 2,217
Meeder Asset Management Inc 2016-09-30 0 Sold All -2,328 $ -166 $ 0
Quantbot Technologies Lp 2016-09-30 3,136 Sold Some -2,392 $ -171 $ 224
Southeast Asset Advisors Inc 2016-09-30 8,285 Sold Some -2,420 $ -173 $ 592
Tower Research Capital Llc Trc 2016-09-30 1,318 Sold Some -2,636 $ -188 $ 94
Texas Permanent School Fund 2016-09-30 33,881 Sold Some -2,882 $ -206 $ 2,423
Leavell Investment Management Inc 2016-09-30 6,100 Sold Some -2,920 $ -208 $ 436
Hsbc Holdings Plc 2016-09-30 0 Sold All -2,957 $ -211 $ 0
Mutual Of America Capital Management Llc 2016-09-30 33,154 Sold Some -3,062 $ -219 $ 2,371
Two Sigma Securities Llc 2016-09-30 0 Sold All -3,087 $ -220 $ 0
Profund Advisors Llc 2016-09-30 6,282 Sold Some -3,264 $ -233 $ 449
Brown Capital Management Llc 2016-09-30 19,834 Sold Some -3,966 $ -283 $ 1,418
Wasatch Advisors Inc 2016-09-30 338,552 Sold Some -4,525 $ -323 $ 24,220
Shelton Capital Management 2016-09-30 0 Sold All -4,839 $ -346 $ 0
First Mercantile Trust Co 2016-09-30 7,630 Sold Some -4,853 $ -347 $ 545
Laurion Capital Management Lp 2016-09-30 0 Sold All -4,900 $ -350 $ 0
Oakbrook Investments Llc 2016-09-30 0 Sold All -4,950 $ -354 $ 0
Washington Capital Management Inc 2016-09-30 0 Sold All -5,000 $ -357 $ 0
Tfs Capital Llc 2016-09-30 0 Sold All -5,100 $ -364 $ 0
Us Bancorp De 2016-09-30 766 Sold Some -5,175 $ -370 $ 54
Dynamic Capital Management Ltd 2016-09-30 0 Sold All -6,033 $ -431 $ 0
Cantillon Capital Management Llc 2016-09-30 1,526,323 Sold Some -6,200 $ -443 $ 109,193
Parametric Portfolio Associates Llc 2016-09-30 39,785 Sold Some -6,651 $ -475 $ 2,846
Tlp Group Llc 2016-09-30 0 Sold All -6,712 $ -480 $ 0
Trexquant Investment Lp 2016-09-30 0 Sold All -6,749 $ -482 $ 0
New York State Teachers Retirement System 2016-09-30 69,878 Sold Some -6,900 $ -493 $ 4,999
Northern Trust Corp 2016-09-30 624,762 Sold Some -7,043 $ -503 $ 44,695
Swiss National Bank 2016-09-30 72,900 Sold Some -7,700 $ -550 $ 5,215
American International Group Inc 2016-09-30 100,296 Sold Some -8,480 $ -606 $ 7,175
Blackrock Investment Management Llc 2016-09-30 168,332 Sold Some -8,766 $ -627 $ 12,042
Gabelli Funds Llc 2016-09-30 4,000 Sold Some -10,000 $ -715 $ 286
Landscape Capital Management L L C 2016-09-30 6,264 Sold Some -11,147 $ -797 $ 448
Bridgewater Associates Lp 2016-09-30 0 Sold All -11,400 $ -815 $ 0
Sg Americas Securities Llc 2016-09-30 7,309 Sold Some -11,596 $ -829 $ 522
Blair William Co Il 2016-09-30 14,859 Sold Some -11,864 $ -848 $ 1,063
Quadrature Capital Ltd 2016-09-30 0 Sold All -13,611 $ -973 $ 0
Walleye Trading Llc 2016-09-30 100 Sold Some -14,562 $ -1,041 $ 7
Airain Ltd 2016-09-30 0 Sold All -14,830 $ -1,060 $ 0
Cubist Systematic Strategies Llc 2016-09-30 0 Sold All -14,952 $ -1,069 $ 0
Everpoint Asset Management Llc 2016-09-30 0 Sold All -15,000 $ -1,073 $ 0
Voloridge Investment Management Llc 2016-09-30 0 Sold All -17,011 $ -1,216 $ 0
Marathon Asset Management Llp 2016-09-30 341,923 Sold Some -18,294 $ -1,308 $ 24,461
Retirement Systems Of Alabama 2016-09-30 85,307 Sold Some -18,914 $ -1,353 $ 6,102
Fiera Capital Corp 2016-09-30 0 Sold All -19,100 $ -1,366 $ 0
Tiverton Asset Management Llc 2016-09-30 68,800 Sold Some -20,496 $ -1,466 $ 4,921
Gluskin Sheff Assoc Inc 2016-09-30 0 Sold All -20,950 $ -1,498 $ 0
New South Capital Management Inc 2016-09-30 2,146,311 Sold Some -21,741 $ -1,555 $ 153,547
Sei Investments Co 2016-09-30 18,197 Sold Some -22,407 $ -1,602 $ 1,301
Kalmar Investments Inc De 2016-09-30 336,488 Sold Some -23,955 $ -1,713 $ 24,072
Bluemountain Capital Management Llc 2016-09-30 1,842 Sold Some -24,352 $ -1,742 $ 131
Nicholas Investment Partners Lp 2016-09-30 0 Sold All -28,501 $ -2,038 $ 0
Century Capital Management Llc 2016-09-30 0 Sold All -29,403 $ -2,103 $ 0
Arlington Value Capital Llc 2016-09-30 920,397 Sold Some -30,869 $ -2,208 $ 65,845
Capital Fund Management S A 2016-09-30 0 Sold All -34,000 $ -2,432 $ 0
Quantitative Investment Management Llc 2016-09-30 0 Sold All -35,900 $ -2,568 $ 0
Pioneer Investment Management Inc 2016-09-30 124,289 Sold Some -40,964 $ -2,930 $ 8,891
Stevens Capital Management Lp 2016-09-30 0 Sold All -55,119 $ -3,943 $ 0
River Road Asset Management Llc 2016-09-30 568,798 Sold Some -62,006 $ -4,435 $ 40,691
Marshall Wace Llp 2016-09-30 0 Sold All -62,643 $ -4,481 $ 0
Clinton Group Inc 2016-09-30 0 Sold All -76,037 $ -5,439 $ 0
Envestnet Asset Management Inc 2016-09-30 16,182 Sold Some -79,056 $ -5,655 $ 1,157
Nationwide Fund Advisors 2016-09-30 74,950 Sold Some -100,605 $ -7,197 $ 5,361
Lord Abbett Co Llc 2016-09-30 689,391 Sold Some -124,993 $ -8,941 $ 49,319
Cornerstone Capital Management Holdings Llc 2016-09-30 32,530 Sold Some -157,065 $ -11,236 $ 2,327
Arrowpoint Asset Management Llc 2016-09-30 747,330 Sold Some -200,868 $ -14,370 $ 53,463
Mackenzie Financial Corp 2016-09-30 277,398 Sold Some -234,647 $ -16,786 $ 19,845
Royce Associates Lp 2016-09-30 560,834 Sold Some -441,930 $ -31,615 $ 40,122